Time;durP1;ratioP1;P1;durP2;ratioP2;P2;SDS_P1;SDS_P2;PMS_P1;PMS_P2;Temp;Humidity;BMP_temperature;BMP_pressure;BME280_temperature;BME280_humidity;BME280_pressure;Samples;Min_cycle;Max_cycle;Signal;HPM_P1;HPM_P2
2024/01/28 00:00:05;;;;;;;10.80;4.50;;;;;;;1.07;76.68;102541.19;4822883;29;20052;-65
2024/01/28 00:03:15;;;;;;;10.10;3.80;;;;;;;1.08;76.26;102542.91;4822872;29;20061;-65
2024/01/28 00:06:18;;;;;;;10.65;4.35;;;;;;;1.06;76.38;102544.59;4822898;29;20050;-65
2024/01/28 00:09:21;;;;;;;10.88;5.38;;;;;;;1.00;76.51;102546.19;4823972;29;20413;-65
2024/01/28 00:12:25;;;;;;;;;;;;;;;0.81;76.43;102539.81;4827746;29;20065;-65
2024/01/28 00:15:27;;;;;;;11.85;3.95;;;;;;;0.92;76.80;102540.88;4826003;29;20523;-65
2024/01/28 00:18:30;;;;;;;13.30;4.00;;;;;;;0.94;76.35;102536.63;4827253;29;20133;-65
2024/01/28 00:21:34;;;;;;;11.13;4.18;;;;;;;0.93;76.51;102529.75;4815750;29;20507;-66
2024/01/28 00:24:37;;;;;;;;;;;;;;;0.81;76.54;102527.78;4827542;29;20095;-65
2024/01/28 00:27:40;;;;;;;10.55;3.42;;;;;;;0.82;76.77;102533.81;4826962;29;20409;-65
2024/01/28 00:30:43;;;;;;;13.32;4.10;;;;;;;0.78;76.27;102532.03;4826964;29;20111;-65
2024/01/28 00:33:47;;;;;;;12.35;4.30;;;;;;;0.85;76.31;102536.44;4826895;29;20080;-65
2024/01/28 00:36:50;;;;;;;11.60;4.05;;;;;;;0.84;76.25;102524.44;4826941;29;20420;-65
2024/01/28 00:39:53;;;;;;;10.05;3.67;;;;;;;0.89;76.30;102520.22;4826841;29;20057;-65
2024/01/28 00:42:57;;;;;;;;;;;;;;;0.77;76.12;102514.84;4827423;29;20053;-65
2024/01/28 00:46:00;;;;;;;11.40;4.28;;;;;;;0.74;76.42;102507.91;4826821;29;19974;-65
2024/01/28 00:49:04;;;;;;;12.40;5.07;;;;;;;0.80;76.32;102510.63;4825790;29;20054;-65
2024/01/28 00:52:07;;;;;;;14.98;3.95;;;;;;;0.71;75.77;102504.41;4826894;29;20519;-65
2024/01/28 00:55:11;;;;;;;;;;;;;;;0.82;75.86;102502.91;4822420;29;20102;-65
2024/01/28 00:58:13;;;;;;;6.05;3.25;;;;;;;0.82;76.23;102495.19;4826299;29;19928;-65
2024/01/28 01:01:18;;;;;;;12.18;4.32;;;;;;;0.78;76.27;102493.41;4826282;29;20152;-65
2024/01/28 01:04:21;;;;;;;9.52;3.67;;;;;;;0.82;76.13;102484.88;4823088;29;20416;-65
2024/01/28 01:07:25;;;;;;;;;;;;;;;0.82;76.07;102490.91;4826795;29;20065;-65
2024/01/28 01:10:29;;;;;;;7.50;4.40;;;;;;;0.84;75.67;102489.22;4826390;29;19924;-65
2024/01/28 01:13:33;;;;;;;18.63;4.78;;;;;;;0.74;75.68;102499.34;4826233;29;20501;-65
2024/01/28 01:16:36;;;;;;;9.02;4.25;;;;;;;0.75;75.94;102488.19;4825494;29;20546;-65
2024/01/28 01:19:40;;;;;;;;;;;;;;;0.75;75.96;102493.34;4826555;29;20076;-65
2024/01/28 01:22:44;;;;;;;13.43;4.20;;;;;;;0.70;76.20;102488.06;4826178;29;19923;-65
2024/01/28 01:25:47;;;;;;;11.60;4.60;;;;;;;0.61;76.36;102488.78;4826303;29;20102;-65
2024/01/28 01:28:50;;;;;;;12.77;4.60;;;;;;;0.71;76.18;102483.81;4825990;29;20099;-65
2024/01/28 01:31:54;;;;;;;;;;;;;;;0.68;76.18;102495.78;4826388;29;20129;-65
2024/01/28 01:34:58;;;;;;;9.65;4.35;;;;;;;0.63;76.62;102491.38;4826026;29;20386;-65
2024/01/28 01:38:01;;;;;;;9.57;4.45;;;;;;;0.64;76.57;102491.41;4825835;29;20049;-65
2024/01/28 01:41:04;;;;;;;;;;;;;;;0.69;76.75;102479.50;4826065;29;20130;-65
2024/01/28 01:44:08;;;;;;;15.15;4.50;;;;;;;0.69;76.24;102482.06;4825718;29;20439;-65
2024/01/28 01:47:11;;;;;;;12.20;5.22;;;;;;;0.50;76.48;102479.97;4821389;29;20103;-65
2024/01/28 01:50:14;;;;;;;14.57;4.45;;;;;;;0.58;76.65;102480.13;4825556;29;20146;-64
2024/01/28 01:53:18;;;;;;;13.13;4.18;;;;;;;0.60;76.15;102476.72;4825068;29;20102;-66
2024/01/28 01:56:23;;;;;;;13.10;5.13;;;;;;;0.60;76.44;102469.00;4825462;29;20103;-66
2024/01/28 01:59:28;;;;;;;15.07;4.68;;;;;;;0.62;76.46;102464.75;4825509;29;20195;-64
2024/01/28 02:02:32;;;;;;;10.95;4.60;;;;;;;0.32;76.43;102462.44;4825554;29;20569;-64
2024/01/28 02:05:35;;;;;;;13.93;4.93;;;;;;;0.23;76.39;102460.53;4825471;29;20052;-64
2024/01/28 02:08:39;;;;;;;;;;;;;;;0.25;77.25;102464.84;4825808;29;20045;-64
2024/01/28 02:11:43;;;;;;;9.50;3.92;;;;;;;0.16;77.22;102453.53;4825667;29;20443;-64
2024/01/28 02:14:47;;;;;;;11.88;5.13;;;;;;;0.30;77.49;102453.81;4813644;29;20049;-65
2024/01/28 02:17:52;;;;;;;9.70;3.97;;;;;;;0.29;76.67;102453.78;4825031;29;20615;-65
2024/01/28 02:20:55;;;;;;;11.68;4.55;;;;;;;0.19;77.12;102450.13;4825423;29;20049;-65
2024/01/28 02:23:58;;;;;;;11.40;4.30;;;;;;;0.28;76.70;102454.63;4825216;29;20049;-65
2024/01/28 02:27:02;;;;;;;7.45;4.10;;;;;;;0.26;76.07;102449.44;4824540;29;20121;-65
2024/01/28 02:30:05;;;;;;;13.38;4.93;;;;;;;0.29;75.60;102453.78;4819950;29;20045;-65
2024/01/28 02:33:09;;;;;;;11.30;4.20;;;;;;;0.32;75.58;102453.84;4819655;29;20557;-65
2024/01/28 02:36:12;;;;;;;8.45;3.72;;;;;;;0.23;75.71;102455.41;4825045;29;20065;-65
2024/01/28 02:39:15;;;;;;;13.02;4.85;;;;;;;0.20;75.72;102455.34;4821171;29;20088;-65
2024/01/28 02:42:19;;;;;;;12.93;4.70;;;;;;;0.16;75.50;102456.09;4821493;29;20057;-65
2024/01/28 02:45:23;;;;;;;11.15;3.72;;;;;;;0.25;75.63;102451.97;4824719;29;20053;-65
2024/01/28 02:48:26;;;;;;;11.77;4.53;;;;;;;0.28;75.60;102445.19;4824769;29;20053;-65
2024/01/28 02:51:29;;;;;;;14.20;4.38;;;;;;;0.31;75.48;102441.81;4824801;29;20597;-65
2024/01/28 02:54:32;;;;;;;12.50;3.80;;;;;;;0.29;75.12;102441.81;4824318;29;20498;-65
2024/01/28 02:57:35;;;;;;;;;;;;;;;0.25;75.25;102441.69;4824632;29;20049;-65
2024/01/28 03:00:39;;;;;;;12.77;3.97;;;;;;;0.15;75.16;102431.19;4824628;29;20020;-65
2024/01/28 03:03:42;;;;;;;11.05;3.97;;;;;;;0.16;75.14;102432.06;4824629;29;20056;-65
2024/01/28 03:06:45;;;;;;;10.52;4.18;;;;;;;0.20;74.88;102429.59;4824361;29;20096;-65
2024/01/28 03:09:48;;;;;;;14.32;4.50;;;;;;;-0.10;75.21;102436.66;4824557;29;20053;-65
2024/01/28 03:12:52;;;;;;;16.63;4.40;;;;;;;-0.01;75.49;102429.13;4824291;29;20049;-65
2024/01/28 03:15:55;;;;;;;10.05;3.47;;;;;;;0.06;74.99;102427.56;4824047;29;20534;-65
2024/01/28 03:18:58;;;;;;;14.35;4.47;;;;;;;0.07;74.82;102422.47;4824363;29;20052;-65
2024/01/28 03:22:03;;;;;;;7.85;4.55;;;;;;;-0.10;74.59;102422.09;4824655;29;20064;-65
2024/01/28 03:25:07;;;;;;;8.93;4.18;;;;;;;-0.06;74.71;102417.91;4819260;29;20053;-65
2024/01/28 03:28:10;;;;;;;8.20;3.97;;;;;;;-0.04;74.79;102421.34;4823649;29;20045;-65
2024/01/28 03:31:14;;;;;;;13.40;4.53;;;;;;;0.01;74.71;102416.31;4824188;29;20573;-65
2024/01/28 03:34:16;;;;;;;9.55;3.92;;;;;;;-0.07;74.68;102411.00;4824094;29;20053;-65
2024/01/28 03:37:20;;;;;;;7.38;4.50;;;;;;;0.02;74.73;102408.63;4820665;29;20058;-65
2024/01/28 03:40:23;;;;;;;8.73;4.15;;;;;;;0.06;74.73;102409.56;4823626;29;20053;-65
2024/01/28 03:43:26;;;;;;;10.07;3.80;;;;;;;0.07;74.42;102411.31;4812947;29;20114;-65
2024/01/28 03:46:30;;;;;;;10.10;4.90;;;;;;;0.08;74.22;102411.34;4824336;29;20588;-65
2024/01/28 03:49:33;;;;;;;12.52;4.13;;;;;;;0.07;74.40;102416.47;4823157;29;20125;-65
2024/01/28 03:52:37;;;;;;;;;;;;;;;0.02;74.25;102403.50;4823516;29;20061;-65
2024/01/28 03:55:40;;;;;;;14.48;4.60;;;;;;;-0.10;74.32;102408.38;4823146;29;19923;-65
2024/01/28 03:58:44;;;;;;;11.98;4.45;;;;;;;-0.21;74.25;102414.97;4823055;29;20061;-65
2024/01/28 04:01:47;;;;;;;13.00;4.13;;;;;;;-0.14;74.74;102404.84;4823349;29;20118;-65
2024/01/28 04:04:50;;;;;;;12.73;4.70;;;;;;;-0.45;75.22;102412.72;4823232;29;20045;-65
2024/01/28 04:07:53;;;;;;;;;;;;;;;-0.77;75.81;102413.66;4823953;29;20096;-65
2024/01/28 04:10:56;;;;;;;10.40;4.68;;;;;;;-0.73;76.99;102412.06;4823518;29;19924;-65
2024/01/28 04:13:59;;;;;;;15.38;5.38;;;;;;;-0.51;76.66;102405.72;4822901;29;20061;-65
2024/01/28 04:17:03;;;;;;;14.25;4.70;;;;;;;-0.33;76.17;102406.16;4823788;29;20123;-65
2024/01/28 04:20:08;;;;;;;;;;;;;;;-0.23;75.72;102407.22;4824072;29;20049;-65
2024/01/28 04:23:12;;;;;;;11.15;5.22;;;;;;;-0.28;75.49;102408.84;4823633;29;19924;-65
2024/01/28 04:26:15;;;;;;;11.80;4.50;;;;;;;-0.32;75.34;102404.44;4811989;29;20056;-64
2024/01/28 04:29:18;;;;;;;12.85;5.47;;;;;;;-0.20;75.58;102385.88;4823601;29;20050;-65
2024/01/28 04:32:21;;;;;;;9.48;4.05;;;;;;;-0.05;75.21;102383.63;4823772;29;20110;-65
2024/01/28 04:35:25;;;;;;;8.18;3.88;;;;;;;0.01;75.09;102386.31;4823437;29;20136;-65
2024/01/28 04:38:28;;;;;;;10.27;4.80;;;;;;;-0.06;74.99;102377.63;4823530;29;20468;-65
2024/01/28 04:41:31;;;;;;;12.20;5.53;;;;;;;0.02;75.13;102388.06;4823769;29;20108;-65
2024/01/28 04:44:35;;;;;;;11.75;4.75;;;;;;;0.05;75.24;102382.97;4823420;29;20180;-65
2024/01/28 04:47:38;;;;;;;9.45;3.63;;;;;;;-0.02;74.83;102386.25;4822902;29;20038;-64
2024/01/28 04:50:42;;;;;;;9.43;3.53;;;;;;;-0.07;74.78;102375.00;4823222;29;20544;-65
2024/01/28 04:53:45;;;;;;;11.35;4.57;;;;;;;-0.18;75.00;102369.63;4826589;29;20065;-65
2024/01/28 04:56:48;;;;;;;12.80;3.63;;;;;;;-0.07;74.86;102367.28;4826501;29;20112;-64
2024/01/28 04:59:53;;;;;;;9.38;4.50;;;;;;;-0.09;74.71;102369.84;4825664;29;20053;-64
2024/01/28 05:02:56;;;;;;;17.10;6.28;;;;;;;-0.10;74.52;102369.78;4825781;29;20074;-64
2024/01/28 05:05:59;;;;;;;14.07;4.97;;;;;;;-0.40;74.85;102373.44;4825318;29;20081;-64
2024/01/28 05:09:03;;;;;;;;;;;;;;;-0.41;75.05;102356.28;4826629;29;20044;-64
2024/01/28 05:12:06;;;;;;;11.98;5.25;;;;;;;-0.32;75.03;102365.88;4815047;29;20386;-64
2024/01/28 05:15:13;;;;;;;9.13;3.63;;;;;;;-0.30;74.83;102367.66;4826244;29;20053;-64
2024/01/28 05:18:16;;;;;;;14.68;4.47;;;;;;;-0.38;75.00;102364.06;4814918;29;20073;-65
2024/01/28 05:21:20;;;;;;;17.02;6.45;;;;;;;-0.39;74.95;102367.44;4826183;29;20104;-64
2024/01/28 05:24:23;;;;;;;13.13;4.50;;;;;;;-0.31;74.75;102373.66;4811564;29;20444;-65
2024/01/28 05:27:26;;;;;;;11.18;5.15;;;;;;;-0.28;73.92;102378.00;4825097;29;20042;-65
2024/01/28 05:30:29;;;;;;;9.82;4.80;;;;;;;-0.42;74.46;102380.22;4825111;29;20053;-65
2024/01/28 05:33:37;;;;;;;10.48;4.55;;;;;;;-0.33;74.63;102369.31;4825574;29;20136;-65
2024/01/28 05:36:40;;;;;;;15.82;4.70;;;;;;;-0.37;74.70;102370.94;4825564;29;20049;-65
2024/01/28 05:39:44;;;;;;;12.15;4.45;;;;;;;-0.39;74.13;102366.59;4814616;29;20058;-65
2024/01/28 05:42:46;;;;;;;13.48;5.43;;;;;;;-0.36;74.33;102358.94;4825663;29;20057;-65
2024/01/28 05:45:50;;;;;;;15.90;5.10;;;;;;;-0.37;74.17;102362.38;4824519;29;20106;-65
2024/01/28 05:48:54;;;;;;;;;;;;;;;-0.74;74.90;102353.81;4824181;29;20045;-66
2024/01/28 05:51:57;;;;;;;11.38;4.50;;;;;;;-0.51;74.91;102359.47;4823693;29;19924;-65
2024/01/28 05:55:00;;;;;;;17.55;4.85;;;;;;;-0.46;74.61;102365.59;4824150;29;20057;-65
2024/01/28 05:58:04;;;;;;;;;;;;;;;-0.41;74.00;102361.44;4824793;29;20057;-65
2024/01/28 06:01:08;;;;;;;12.35;5.10;;;;;;;-0.58;73.87;102366.16;4825539;29;20007;-64
2024/01/28 06:04:11;;;;;;;14.25;5.90;;;;;;;-0.73;74.30;102360.69;4820484;29;20049;-65
2024/01/28 06:07:14;;;;;;;11.18;4.93;;;;;;;-0.76;74.51;102358.06;4825428;29;20102;-65
2024/01/28 06:10:18;;;;;;;;;;;;;;;-0.65;74.68;102355.72;4825576;29;20103;-64
2024/01/28 06:13:21;;;;;;;13.50;4.70;;;;;;;-0.58;74.18;102367.88;4821874;29;19924;-66
2024/01/28 06:16:25;;;;;;;13.60;4.80;;;;;;;-0.55;74.51;102362.81;4814721;29;20091;-66
2024/01/28 06:19:28;;;;;;;14.77;5.65;;;;;;;-0.63;74.36;102359.22;4817117;29;20050;-65
2024/01/28 06:22:31;;;;;;;;;;;;;;;-0.58;74.12;102350.75;4815805;29;20085;-65
2024/01/28 06:25:36;;;;;;;13.90;5.07;;;;;;;-0.52;73.97;102352.59;4816406;29;20299;-65
2024/01/28 06:28:40;;;;;;;11.10;5.63;;;;;;;-0.48;73.99;102354.38;4804988;29;20050;-65
2024/01/28 06:31:43;;;;;;;13.32;4.43;;;;;;;-0.55;73.61;102352.53;4813822;29;20061;-65
2024/01/28 06:34:46;;;;;;;10.32;4.03;;;;;;;-0.58;73.43;102349.88;4806708;29;20049;-65
2024/01/28 06:38:15;;;;;;;14.05;4.95;;;;;;;-0.56;73.75;102348.22;4805775;29;20054;-69
2024/01/28 06:41:18;;;;;;;10.55;4.38;;;;;;;-0.62;73.59;102336.09;4806506;29;20066;-64
2024/01/28 06:44:22;;;;;;;14.10;4.78;;;;;;;-0.81;73.28;102333.94;4805759;29;20054;-65
2024/01/28 06:47:25;;;;;;;;;;;;;;;-1.05;74.32;102334.25;4806101;29;20103;-64
2024/01/28 06:50:28;;;;;;;10.60;3.88;;;;;;;-0.98;74.54;102346.41;4804782;29;19980;-64
2024/01/28 06:53:32;;;;;;;12.57;5.13;;;;;;;-0.81;74.17;102347.66;4806590;29;20187;-64
2024/01/28 06:56:39;;;;;;;12.25;4.38;;;;;;;-0.77;73.97;102346.88;4806324;29;20151;-65
2024/01/28 06:59:44;;;;;;;13.27;4.75;;;;;;;-0.82;73.68;102348.50;4794404;29;20599;-65
2024/01/28 07:02:49;;;;;;;13.95;5.30;;;;;;;-1.07;74.27;102351.31;4805378;29;20049;-64
2024/01/28 07:05:52;;;;;;;11.07;4.65;;;;;;;-1.11;74.45;102352.94;4804147;29;20635;-64
2024/01/28 07:08:57;;;;;;;15.30;5.53;;;;;;;-1.02;74.71;102349.69;4804263;29;20309;-65
2024/01/28 07:12:00;;;;;;;10.63;4.35;;;;;;;-0.89;74.77;102350.84;4804526;29;20053;-65
2024/01/28 07:15:04;;;;;;;15.73;5.63;;;;;;;-0.80;73.95;102357.13;4803185;29;20049;-65
2024/01/28 07:18:08;;;;;;;10.40;4.85;;;;;;;-0.72;74.38;102354.72;4804062;29;20528;-65
2024/01/28 07:21:13;;;;;;;13.55;4.65;;;;;;;-0.74;73.09;102357.22;4803749;29;20543;-65
2024/01/28 07:24:17;;;;;;;14.23;5.03;;;;;;;-0.70;73.38;102358.19;4805258;29;20062;-65
2024/01/28 07:27:21;;;;;;;16.65;4.78;;;;;;;-0.77;73.49;102352.03;4804120;29;20409;-65
2024/01/28 07:30:25;;;;;;;17.40;4.18;;;;;;;-0.68;73.27;102356.50;4817663;29;20054;-65
2024/01/28 07:33:29;;;;;;;10.65;4.65;;;;;;;-0.90;73.95;102350.00;4814088;29;20052;-65
2024/01/28 07:36:33;;;;;;;12.32;4.90;;;;;;;-0.76;73.98;102358.91;4809363;29;20058;-65
2024/01/28 07:39:36;;;;;;;13.63;4.82;;;;;;;-0.67;73.64;102357.38;4814098;29;20092;-65
2024/01/28 07:42:40;;;;;;;13.48;4.85;;;;;;;-0.62;73.59;102356.66;4813158;29;20149;-65
2024/01/28 07:45:43;;;;;;;15.40;5.75;;;;;;;-0.61;73.31;102352.38;4813515;29;20050;-65
2024/01/28 07:48:46;;;;;;;9.13;4.45;;;;;;;-0.73;73.62;102359.00;4813819;29;20087;-65
2024/01/28 07:51:49;;;;;;;;;;;;;;;-0.63;73.87;102354.06;4821729;29;20100;-65
2024/01/28 07:54:53;;;;;;;14.85;4.47;;;;;;;-0.61;73.17;102357.53;4810769;29;19935;-67
2024/01/28 07:57:57;;;;;;;14.43;4.35;;;;;;;-0.75;73.53;102354.63;4822073;29;20121;-66
2024/01/28 08:01:30;;;;;;;13.45;4.63;;;;;;;-0.67;73.66;102352.25;4821856;29;20054;-67
2024/01/28 08:04:34;;;;;;;21.92;7.20;;;;;;;-0.62;74.23;102350.66;4822349;29;20421;-64
2024/01/28 08:07:37;;;;;;;20.10;10.57;;;;;;;-0.54;74.04;102356.84;4822163;29;20044;-64
2024/01/28 08:10:40;;;;;;;38.25;17.00;;;;;;;-0.50;73.74;102361.22;4821929;29;20121;-65
2024/01/28 08:13:44;;;;;;;132.85;63.70;;;;;;;-0.53;73.41;102356.88;4821946;29;20080;-66
2024/01/28 08:16:47;;;;;;;95.05;47.78;;;;;;;-0.55;73.80;102353.38;4822093;29;20133;-63
2024/01/28 08:19:50;;;;;;;19.35;8.73;;;;;;;-0.49;73.53;102361.25;4821983;29;20129;-64
2024/01/28 08:22:53;;;;;;;15.55;6.05;;;;;;;-0.47;73.73;102359.59;4821009;29;20069;-64
2024/01/28 08:25:57;;;;;;;13.65;7.35;;;;;;;-0.42;73.60;102359.66;4821840;29;20575;-63
2024/01/28 08:29:00;;;;;;;16.35;5.15;;;;;;;-0.40;73.37;102357.16;4813514;29;20081;-64
2024/01/28 08:32:04;;;;;;;10.52;4.43;;;;;;;-0.37;73.00;102357.22;4824601;29;20061;-64
2024/01/28 08:35:08;;;;;;;14.65;5.18;;;;;;;-0.42;73.54;102349.41;4825190;29;20099;-65
2024/01/28 08:38:14;;;;;;;10.38;4.60;;;;;;;-0.38;73.67;102351.22;4825583;29;20050;-64
2024/01/28 08:41:19;;;;;;;14.93;5.07;;;;;;;-0.40;73.39;102355.44;4825634;29;20052;-64
2024/01/28 08:44:22;;;;;;;14.77;4.47;;;;;;;-0.37;73.62;102352.94;4825287;29;20073;-64
2024/01/28 08:47:26;;;;;;;12.55;5.28;;;;;;;-0.33;73.60;102349.59;4823914;29;20115;-65
2024/01/28 08:50:29;;;;;;;14.45;4.35;;;;;;;-0.31;74.17;102347.94;4824938;29;20069;-64
2024/01/28 08:53:33;;;;;;;14.13;4.40;;;;;;;-0.24;73.87;102356.66;4824241;29;20060;-65
2024/01/28 08:56:36;;;;;;;11.93;5.43;;;;;;;-0.21;73.91;102358.44;4824469;29;20114;-70
2024/01/28 08:59:39;;;;;;;12.32;6.22;;;;;;;-0.18;74.14;102358.50;4822344;29;20413;-66
2024/01/28 09:02:43;;;;;;;;;;;;;;;-0.20;73.91;102363.59;4816562;29;20104;-65
2024/01/28 09:05:47;;;;;;;14.00;5.65;;;;;;;-0.17;74.13;102361.09;4813272;29;20007;-65
2024/01/28 09:08:53;;;;;;;11.02;5.50;;;;;;;-0.15;73.81;102364.56;4824795;29;20166;-65
2024/01/28 09:11:57;;;;;;;16.17;5.30;;;;;;;-0.13;74.53;102367.16;4824991;29;20136;-65
2024/01/28 09:15:00;;;;;;;11.57;5.32;;;;;;;-0.14;74.87;102356.00;4824593;29;20049;-65
2024/01/28 09:18:04;;;;;;;15.35;6.18;;;;;;;-0.10;74.78;102356.94;4824639;29;20107;-65
2024/01/28 09:21:10;;;;;;;11.20;5.00;;;;;;;-0.03;74.70;102358.81;4812433;29;20107;-65
2024/01/28 09:24:17;;;;;;;16.33;5.20;;;;;;;0.02;74.88;102351.19;4820316;29;20480;-66
2024/01/28 09:27:23;;;;;;;10.45;5.57;;;;;;;0.03;75.08;102353.78;4822190;29;20061;-66
2024/01/28 09:30:26;;;;;;;13.45;5.80;;;;;;;0.07;75.25;102339.31;4814058;29;20366;-67
2024/01/28 09:33:30;;;;;;;12.30;6.35;;;;;;;0.11;75.02;102344.53;4812795;29;20077;-66
2024/01/28 09:36:55;;;;;;;13.93;6.15;;;;;;;0.18;75.71;102348.09;4812616;29;20044;-67
2024/01/28 09:39:59;;;;;;;13.90;6.35;;;;;;;0.27;75.68;102350.84;4808229;29;20053;-67
2024/01/28 09:43:39;;;;;;;13.80;6.63;;;;;;;0.34;75.71;102349.25;4816814;29;20521;-67
2024/01/28 09:46:43;;;;;;;19.42;6.38;;;;;;;0.42;75.85;102335.69;4806319;29;20509;-65
2024/01/28 09:49:48;;;;;;;18.45;7.07;;;;;;;0.50;75.90;102335.81;4806126;29;20196;-66
2024/01/28 09:53:04;;;;;;;16.80;7.10;;;;;;;0.57;76.12;102341.94;4808730;29;20460;-66
2024/01/28 09:56:22;;;;;;;12.75;6.25;;;;;;;0.59;76.79;102335.13;4814753;29;20573;-66
2024/01/28 09:59:35;;;;;;;13.65;6.82;;;;;;;0.69;76.91;102332.72;4806755;29;20120;-65
2024/01/28 10:03:09;;;;;;;15.18;6.07;;;;;;;0.77;77.10;102324.28;4806931;29;20042;-65
2024/01/28 10:06:21;;;;;;;12.80;6.13;;;;;;;0.81;77.65;102324.38;4794211;29;20054;-65
2024/01/28 10:09:28;;;;;;;12.55;6.13;;;;;;;0.92;78.04;102319.38;4818021;29;20069;-65
2024/01/28 10:12:31;;;;;;;12.02;5.85;;;;;;;0.98;78.34;102319.47;4816546;29;20466;-65
2024/01/28 10:15:34;;;;;;;17.50;7.47;;;;;;;0.92;79.13;102315.09;4806319;29;20057;-66
2024/01/28 10:18:37;;;;;;;13.90;6.38;;;;;;;1.06;79.36;102325.63;4805758;29;20081;-66
2024/01/28 10:21:42;;;;;;;16.23;7.22;;;;;;;1.10;79.47;102322.25;4810924;29;20081;-65
2024/01/28 10:24:46;;;;;;;16.55;6.40;;;;;;;1.02;81.77;102310.09;4812262;29;20053;-66
2024/01/28 10:27:50;;;;;;;17.40;6.78;;;;;;;1.25;81.31;102303.59;4824073;29;20062;-65
2024/01/28 10:30:53;;;;;;;12.05;5.53;;;;;;;1.33;82.37;102306.25;4813257;29;20590;-65
2024/01/28 10:33:56;;;;;;;15.38;6.88;;;;;;;1.43;82.21;102300.38;4816257;29;20081;-66
2024/01/28 10:37:04;;;;;;;16.65;6.20;;;;;;;1.58;81.68;102299.75;4823165;29;20067;-66
2024/01/28 10:40:09;;;;;;;14.80;5.72;;;;;;;1.58;83.07;102292.88;4813037;29;20049;-66
2024/01/28 10:43:15;;;;;;;13.52;6.05;;;;;;;1.75;82.89;102287.06;4812675;29;20066;-65
2024/01/28 10:46:46;;;;;;;10.95;5.28;;;;;;;1.90;83.02;102274.34;4803899;29;20074;-66
2024/01/28 10:49:58;;;;;;;14.15;7.32;;;;;;;2.03;83.05;102271.06;4813472;29;20090;-65
2024/01/28 10:53:06;;;;;;;12.15;5.60;;;;;;;2.13;82.94;102268.56;4815011;29;20069;-65
2024/01/28 10:56:12;;;;;;;15.32;7.22;;;;;;;2.22;82.57;102266.94;4813123;29;20179;-64
2024/01/28 10:59:16;;;;;;;13.55;5.97;;;;;;;2.32;82.96;102268.78;4811009;29;20136;-64
2024/01/28 11:02:20;;;;;;;9.02;5.22;;;;;;;2.41;83.29;102257.66;4814005;29;20041;-65
2024/01/28 11:05:26;;;;;;;11.07;5.18;;;;;;;2.46;83.83;102260.31;4814475;29;20508;-64
2024/01/28 11:08:30;;;;;;;15.13;6.60;;;;;;;2.58;83.57;102250.06;4821030;29;20115;-64
2024/01/28 11:11:33;;;;;;;11.90;5.55;;;;;;;2.68;83.58;102253.59;4823249;29;20069;-64
2024/01/28 11:14:38;;;;;;;16.38;6.10;;;;;;;2.76;83.49;102239.03;4822286;29;20087;-64
2024/01/28 11:17:42;;;;;;;13.75;6.32;;;;;;;2.81;83.13;102229.59;4822912;29;20199;-65
2024/01/28 11:20:45;;;;;;;12.70;5.32;;;;;;;2.90;83.59;102231.38;4822739;29;20061;-64
2024/01/28 11:23:49;;;;;;;;;;;;;;;2.98;83.20;102225.41;4823214;29;20155;-64
2024/01/28 11:26:57;;;;;;;13.23;5.57;;;;;;;3.01;83.52;102222.84;4822310;29;19938;-65
2024/01/28 11:30:01;;;;;;;11.45;7.55;;;;;;;3.12;83.50;102222.03;4815586;29;20111;-65
2024/01/28 11:33:09;;;;;;;12.77;6.43;;;;;;;3.22;83.23;102219.53;4803998;29;20432;-65
2024/01/28 11:36:21;;;;;;;15.90;6.82;;;;;;;3.24;83.14;102206.59;4804188;29;20138;-65
2024/01/28 11:39:42;;;;;;;13.00;5.20;;;;;;;3.33;82.90;102204.06;4804251;29;20046;-65
2024/01/28 11:42:45;;;;;;;9.52;5.32;;;;;;;3.39;82.98;102196.31;4804022;29;20057;-65
2024/01/28 11:45:49;;;;;;;11.20;5.35;;;;;;;3.24;83.33;102181.59;4804292;29;20050;-65
2024/01/28 11:48:52;;;;;;;11.98;5.22;;;;;;;3.47;83.20;102186.00;4804482;29;20088;-65
2024/01/28 11:51:55;;;;;;;16.48;5.85;;;;;;;3.53;82.69;102180.84;4804545;29;20531;-65
2024/01/28 11:55:09;;;;;;;13.27;5.03;;;;;;;3.61;82.30;102175.72;4804238;29;20061;-65
2024/01/28 11:58:16;;;;;;;12.52;5.20;;;;;;;3.68;82.23;102169.69;4803929;29;20131;-66
2024/01/28 12:01:20;;;;;;;16.73;6.75;;;;;;;3.76;82.01;102164.53;4796130;29;20062;-65
2024/01/28 12:04:23;;;;;;;14.50;5.75;;;;;;;3.74;81.66;102161.94;4809873;29;20074;-65
2024/01/28 12:07:27;;;;;;;;;;;;;;;3.84;81.77;102157.66;4810733;29;20413;-65
2024/01/28 12:10:30;;;;;;;11.80;4.97;;;;;;;3.90;81.43;102158.53;4810295;29;20016;-66
2024/01/28 12:13:33;;;;;;;10.93;5.45;;;;;;;3.97;81.61;102155.06;4810112;29;20045;-67
2024/01/28 12:16:37;;;;;;;11.73;5.20;;;;;;;4.05;81.13;102139.56;4798631;29;20573;-67
2024/01/28 12:19:40;;;;;;;12.35;5.32;;;;;;;4.09;80.92;102130.94;4809984;29;20404;-67
2024/01/28 12:22:44;;;;;;;;;;;;;;;4.17;80.95;102136.09;4799174;29;20110;-67
2024/01/28 12:25:49;;;;;;;;;;;;;;;4.24;80.69;102137.81;4810559;29;19974;-67
2024/01/28 12:28:53;;;;;;;14.02;4.63;;;;;;;4.31;80.15;102129.22;4809860;29;20485;-67
2024/01/28 12:31:56;;;;;;;12.70;6.00;;;;;;;4.37;80.10;102134.38;4809781;29;20535;-67
2024/01/28 12:35:04;;;;;;;16.02;5.65;;;;;;;4.33;79.39;102135.22;4810069;29;20063;-67
2024/01/28 12:38:07;;;;;;;14.07;5.25;;;;;;;4.40;79.21;102129.22;4809999;29;20513;-67
2024/01/28 12:41:11;;;;;;;10.57;5.53;;;;;;;4.45;78.98;102125.75;4809831;29;20072;-66
2024/01/28 12:44:15;;;;;;;10.25;5.18;;;;;;;4.48;79.11;102110.19;4810069;29;20492;-66
2024/01/28 12:47:18;;;;;;;11.25;5.35;;;;;;;4.55;78.85;102114.50;4809904;29;20142;-66
2024/01/28 12:50:21;;;;;;;14.73;5.45;;;;;;;4.58;78.57;102106.72;4809722;29;20453;-66
2024/01/28 12:53:25;;;;;;;10.20;5.90;;;;;;;4.61;78.34;102106.72;4810342;29;20062;-66
2024/01/28 12:56:28;;;;;;;8.93;4.50;;;;;;;4.54;77.89;102089.47;4809900;29;20425;-66
2024/01/28 12:59:31;;;;;;;13.95;6.07;;;;;;;4.57;77.93;102087.72;4809673;29;20130;-66
2024/01/28 13:02:34;;;;;;;13.73;5.93;;;;;;;4.60;78.01;102089.44;4810021;29;20182;-66
2024/01/28 13:05:38;;;;;;;9.05;5.00;;;;;;;4.59;78.02;102085.13;4798623;29;20429;-66
2024/01/28 13:08:41;;;;;;;;;;;;;;;4.62;78.14;102082.50;4810118;29;20632;-66
2024/01/28 13:11:44;;;;;;;13.05;6.30;;;;;;;4.65;77.62;102078.19;4808988;29;19924;-66
2024/01/28 13:14:48;;;;;;;15.07;5.28;;;;;;;4.69;77.77;102073.88;4807028;29;20111;-67
2024/01/28 13:17:51;;;;;;;8.15;4.60;;;;;;;4.73;77.63;102065.22;4806721;29;20054;-66
2024/01/28 13:20:55;;;;;;;11.82;4.82;;;;;;;4.76;77.30;102065.22;4806723;29;20073;-66
2024/01/28 13:23:58;;;;;;;10.02;4.55;;;;;;;4.79;77.45;102064.34;4806949;29;20413;-66
2024/01/28 13:27:01;;;;;;;14.35;5.30;;;;;;;4.82;76.96;102054.81;4806559;29;20054;-66
2024/01/28 13:30:06;;;;;;;9.70;4.38;;;;;;;4.83;76.83;102056.53;4806617;29;20134;-66
2024/01/28 13:33:09;;;;;;;14.98;5.80;;;;;;;4.85;76.82;102048.75;4806457;29;20138;-66
2024/01/28 13:36:12;;;;;;;11.10;5.38;;;;;;;4.83;77.20;102043.59;4795144;29;20524;-66
2024/01/28 13:39:15;;;;;;;12.45;6.25;;;;;;;4.85;77.03;102038.38;4819955;29;20421;-66
2024/01/28 13:42:19;;;;;;;13.15;6.05;;;;;;;4.88;76.21;102035.78;4824472;29;20050;-66
2024/01/28 13:45:22;;;;;;;;;;;;;;;4.92;76.77;102034.06;4821840;29;20126;-67
2024/01/28 13:48:25;;;;;;;8.95;5.13;;;;;;;4.97;76.73;102027.97;4824285;29;20327;-66
2024/01/28 13:51:28;;;;;;;11.63;5.53;;;;;;;5.02;76.77;102025.34;4824585;29;20049;-66
2024/01/28 13:54:32;;;;;;;13.85;5.60;;;;;;;5.03;76.52;102021.88;4824454;29;20182;-66
2024/01/28 13:57:35;;;;;;;13.80;7.70;;;;;;;5.06;76.71;102016.69;4824108;29;20098;-66
2024/01/28 14:00:38;;;;;;;14.77;6.45;;;;;;;5.06;76.05;102027.06;4824105;29;20459;-66
2024/01/28 14:03:41;;;;;;;;;;;;;;;5.08;76.06;102022.75;4824595;29;20425;-66
2024/01/28 14:06:45;;;;;;;11.02;5.05;;;;;;;5.07;75.85;102024.47;4824357;29;19924;-66
2024/01/28 14:09:48;;;;;;;12.13;5.93;;;;;;;5.06;75.89;102016.69;4824085;29;20558;-66
2024/01/28 14:12:51;;;;;;;;;;;;;;;5.06;75.83;102017.53;4813348;29;20417;-66
2024/01/28 14:15:55;;;;;;;12.32;5.03;;;;;;;5.03;75.90;102014.09;4824194;29;19963;-66
2024/01/28 14:18:57;;;;;;;7.97;4.22;;;;;;;5.03;76.09;102016.69;4824098;29;20054;-66
2024/01/28 14:22:01;;;;;;;12.75;5.28;;;;;;;4.99;75.58;102015.84;4823950;29;20145;-67